Time;durP1;ratioP1;P1;durP2;ratioP2;P2;SDS_P1;SDS_P2;PMS_P1;PMS_P2;Temp;Humidity;BMP_temperature;BMP_pressure;BME280_temperature;BME280_humidity;BME280_pressure;Samples;Min_cycle;Max_cycle;Signal;HPM_P1;HPM_P2
2021/06/15 00:02:04;;;;;;;4.82;1.90;;;14.30;56.30;;;;;;6096509;23;19909;-70
2021/06/15 00:04:30;;;;;;;;;;;14.20;57.60;;;;;;6097074;23;20066;-73
2021/06/15 00:06:56;;;;;;;6.40;2.10;;;14.20;56.50;;;;;;6097397;23;19939;-73
2021/06/15 00:09:22;;;;;;;;;;;14.20;58.50;;;;;;6073555;23;20017;-70
2021/06/15 00:11:49;;;;;;;4.57;2.03;;;14.10;56.50;;;;;;6097036;23;19913;-73
2021/06/15 00:14:15;;;;;;;;;;;14.10;57.50;;;;;;6097595;23;20026;-73
2021/06/15 00:16:41;;;;;;;4.47;2.05;;;14.00;56.50;;;;;;6098330;23;19917;-73
2021/06/15 00:19:07;;;;;;;;;;;14.00;57.40;;;;;;6098937;23;20013;-70
2021/06/15 00:21:33;;;;;;;5.22;1.95;;;13.70;56.70;;;;;;6098382;23;19939;-73
2021/06/15 00:23:59;;;;;;;;;;;13.70;57.80;;;;;;6073435;23;20017;-70
2021/06/15 00:26:26;;;;;;;5.57;2.95;;;13.70;56.70;;;;;;6072807;23;20343;-73
2021/06/15 00:28:53;;;;;;;;;;;13.70;57.90;;;;;;6098981;23;20014;-73
2021/06/15 00:31:23;;;;;;;7.25;2.60;;;13.70;57.30;;;;;;6098198;23;19913;-70
2021/06/15 00:33:50;;;;;;;6.57;2.90;;;13.60;57.70;;;;;;6097029;23;20006;-73
2021/06/15 00:36:17;;;;;;;6.45;2.42;;;13.60;58.00;;;;;;6048615;23;20058;-73
2021/06/15 00:38:43;;;;;;;;;;;13.60;58.30;;;;;;6097463;23;20014;-72
2021/06/15 00:41:09;;;;;;;6.15;2.35;;;13.60;57.60;;;;;;6048939;23;19924;-71
2021/06/15 00:43:35;;;;;;;;;;;13.60;57.70;;;;;;6073204;23;20463;-73
2021/06/15 00:46:02;;;;;;;8.35;2.35;;;13.50;57.50;;;;;;6096906;23;19996;-73
2021/06/15 00:48:46;;;;;;;;;;;13.60;58.20;;;;;;6049303;23;20344;-70
2021/06/15 00:51:14;;;;;;;7.07;2.38;;;13.50;57.50;;;;;;6048867;23;19928;-72
2021/06/15 00:53:41;;;;;;;5.88;2.10;;;13.50;58.30;;;;;;6096612;23;20010;-73
2021/06/15 00:56:07;;;;;;;5.55;2.92;;;13.50;58.50;;;;;;6072751;23;20041;-73
2021/06/15 00:58:34;;;;;;;5.97;2.58;;;13.50;58.80;;;;;;6098023;23;20321;-72
2021/06/15 01:01:00;;;;;;;8.02;2.90;;;13.50;59.00;;;;;;6098521;23;20018;-70
2021/06/15 01:03:28;;;;;;;7.10;3.08;;;13.40;58.50;;;;;;6072421;23;20007;-70
2021/06/15 01:05:56;;;;;;;10.10;4.03;;;13.50;59.10;;;;;;6098412;23;20042;-72
2021/06/15 01:08:43;;;;;;;8.15;3.90;;;13.40;59.20;;;;;;6072266;23;20011;-73
2021/06/15 01:11:34;;;;;;;;;;;13.40;59.40;;;;;;6099056;23;20014;-70
2021/06/15 01:14:56;;;;;;;9.18;4.45;;;13.30;58.60;;;;;;6097695;23;19909;-72
2021/06/15 01:17:46;;;;;;;8.60;4.47;;;13.30;59.30;;;;;;6097540;23;20348;-73
2021/06/15 01:20:52;;;;;;;8.02;3.70;;;13.30;59.60;;;;;;6072545;23;20046;-73
2021/06/15 01:23:56;;;;;;;9.77;3.90;;;13.10;59.60;;;;;;6096459;23;20010;-73
2021/06/15 01:27:18;;;;;;;5.85;3.17;;;13.10;59.50;;;;;;6097814;23;20021;-70
2021/06/15 01:29:46;;;;;;;6.72;2.95;;;13.10;59.30;;;;;;6097460;23;20503;-70
2021/06/15 01:32:24;;;;;;;7.60;3.22;;;13.10;59.30;;;;;;6096333;23;20006;-70
2021/06/15 01:34:52;;;;;;;8.30;3.25;;;13.00;59.50;;;;;;6072408;23;20025;-72
2021/06/15 01:37:42;;;;;;;6.40;2.97;;;12.90;59.90;;;;;;6048229;23;20448;-73
2021/06/15 01:40:47;;;;;;;7.07;2.60;;;12.90;59.90;;;;;;6096139;23;20448;-70
2021/06/15 01:43:25;;;;;;;9.48;2.55;;;12.90;59.70;;;;;;6097650;23;20007;-70
2021/06/15 01:45:54;;;;;;;7.10;2.60;;;12.80;59.90;;;;;;6072446;23;20018;-73
2021/06/15 01:49:03;;;;;;;6.68;2.53;;;12.80;59.90;;;;;;6096086;23;20022;-73
2021/06/15 01:51:32;;;;;;;6.78;2.75;;;12.80;59.80;;;;;;6097451;23;20026;-70
2021/06/15 01:54:09;;;;;;;7.10;2.70;;;12.80;60.00;;;;;;6047870;23;20011;-73
2021/06/15 01:56:41;;;;;;;7.38;3.13;;;12.80;60.40;;;;;;6096010;23;20051;-73
2021/06/15 01:59:26;;;;;;;6.53;2.95;;;12.80;60.40;;;;;;6048324;23;20459;-70
2021/06/15 02:01:57;;;;;;;5.35;2.95;;;12.80;60.60;;;;;;6072087;23;20014;-70
2021/06/15 02:04:45;;;;;;;7.95;3.70;;;12.80;60.80;;;;;;6095756;23;20399;-74
2021/06/15 02:07:19;;;;;;;8.23;4.03;;;12.80;60.90;;;;;;6095991;23;20010;-70
2021/06/15 02:09:59;;;;;;;9.38;4.13;;;12.70;61.20;;;;;;6097413;23;20049;-70
2021/06/15 02:12:30;;;;;;;8.45;4.13;;;12.70;61.60;;;;;;6071838;23;20010;-73
2021/06/15 02:14:59;;;;;;;10.35;4.35;;;12.70;61.70;;;;;;6071901;23;20086;-73
2021/06/15 02:17:27;;;;;;;9.18;3.78;;;12.70;61.80;;;;;;6072001;23;20445;-70
2021/06/15 02:19:54;;;;;;;8.32;4.10;;;12.70;61.90;;;;;;6071839;23;20022;-70
2021/06/15 02:22:23;;;;;;;11.10;5.13;;;12.70;62.00;;;;;;6095867;23;20037;-73
2021/06/15 02:25:09;;;;;;;10.00;5.50;;;12.70;61.90;;;;;;6095717;23;20029;-72
2021/06/15 02:27:35;;;;;;;13.10;5.38;;;12.70;61.90;;;;;;6071864;23;20075;-73
2021/06/15 02:30:01;;;;;;;;;;;12.70;62.00;;;;;;6047949;23;20448;-73
2021/06/15 02:32:48;;;;;;;7.32;4.18;;;12.60;60.50;;;;;;6071735;23;19909;-71
2021/06/15 02:35:15;;;;;;;8.05;4.38;;;12.60;61.70;;;;;;6071828;23;20483;-70
2021/06/15 02:38:05;;;;;;;7.35;3.83;;;12.50;61.70;;;;;;6071481;23;20089;-70
2021/06/15 02:40:33;;;;;;;8.20;3.50;;;12.50;62.10;;;;;;6071580;23;20029;-70
2021/06/15 02:43:00;;;;;;;8.52;3.83;;;12.50;62.10;;;;;;6096974;23;20326;-73
2021/06/15 02:45:31;;;;;;;7.45;2.83;;;12.50;62.30;;;;;;6071584;23;20022;-70
2021/06/15 02:48:17;;;;;;;9.63;3.10;;;12.50;62.50;;;;;;6071475;23;20021;-73
2021/06/15 02:50:45;;;;;;;7.72;3.50;;;12.50;62.40;;;;;;6071619;23;20014;-70
2021/06/15 02:53:36;;;;;;;7.90;2.85;;;12.50;62.50;;;;;;6071511;23;20014;-73
2021/06/15 02:56:22;;;;;;;11.88;3.20;;;12.50;62.60;;;;;;6071708;23;20025;-70
2021/06/15 02:58:49;;;;;;;7.82;2.90;;;12.50;62.70;;;;;;6095507;23;20090;-70
2021/06/15 03:01:15;;;;;;;;;;;12.50;62.70;;;;;;6096196;23;20029;-71
2021/06/15 03:03:41;;;;;;;8.27;3.30;;;12.40;62.00;;;;;;6071303;23;20330;-73
2021/06/15 03:06:07;;;;;;;;;;;12.40;62.50;;;;;;6096140;23;20474;-73
2021/06/15 03:08:35;;;;;;;6.70;2.67;;;12.40;61.40;;;;;;6096851;23;19909;-70
2021/06/15 03:11:03;;;;;;;8.32;3.75;;;12.20;61.90;;;;;;6095126;23;20070;-73
2021/06/15 03:13:53;;;;;;;7.68;3.50;;;12.10;62.20;;;;;;6095262;23;20278;-73
2021/06/15 03:16:25;;;;;;;6.90;3.05;;;12.10;62.60;;;;;;6071351;23;20097;-70
2021/06/15 03:19:28;;;;;;;7.40;2.88;;;12.00;62.50;;;;;;6096698;23;20011;-73
2021/06/15 03:22:06;;;;;;;5.53;2.80;;;11.90;62.50;;;;;;6096783;23;20392;-70
2021/06/15 03:24:34;;;;;;;9.15;3.30;;;11.90;62.10;;;;;;6071340;23;20022;-70
2021/06/15 03:27:09;;;;;;;6.93;2.88;;;11.90;62.60;;;;;;6071181;23;20101;-73
2021/06/15 03:29:40;;;;;;;7.07;2.95;;;11.90;62.70;;;;;;6070947;23;20019;-71
2021/06/15 03:32:30;;;;;;;7.22;3.03;;;11.90;62.70;;;;;;6096742;23;20065;-73
2021/06/15 03:34:58;;;;;;;10.35;3.38;;;12.00;62.90;;;;;;6096786;23;20479;-74
2021/06/15 03:37:27;;;;;;;9.15;3.58;;;11.90;63.00;;;;;;6071068;23;20011;-70
2021/06/15 03:39:58;;;;;;;8.15;3.30;;;12.00;63.30;;;;;;6071312;23;20504;-74
2021/06/15 03:42:37;;;;;;;9.48;3.63;;;12.00;63.40;;;;;;6094878;23;20006;-74
2021/06/15 03:45:07;;;;;;;10.60;3.90;;;12.00;63.40;;;;;;6095269;23;20021;-74
2021/06/15 03:47:38;;;;;;;9.98;4.13;;;12.10;63.50;;;;;;6096459;23;20014;-70
2021/06/15 03:50:06;;;;;;;12.73;4.60;;;12.10;63.80;;;;;;6071073;23;20459;-70
2021/06/15 03:52:55;;;;;;;10.88;3.67;;;12.10;63.70;;;;;;6071075;23;20520;-70
2021/06/15 03:55:23;;;;;;;9.85;3.88;;;12.20;63.80;;;;;;6071017;23;20022;-74
2021/06/15 03:57:49;;;;;;;12.00;3.47;;;12.20;63.70;;;;;;6070986;23;20015;-73
2021/06/15 04:00:20;;;;;;;14.20;3.60;;;12.20;63.80;;;;;;6071296;23;20041;-70
2021/06/15 04:02:53;;;;;;;13.23;3.78;;;12.30;64.10;;;;;;6096448;23;20057;-70
2021/06/15 04:05:40;;;;;;;7.70;3.90;;;12.30;64.20;;;;;;6095119;23;20015;-70
2021/06/15 04:08:12;;;;;;;8.40;4.00;;;12.30;64.10;;;;;;6070971;23;20017;-73
2021/06/15 04:10:43;;;;;;;10.18;5.15;;;12.40;64.10;;;;;;6071179;23;20019;-70
2021/06/15 04:13:11;;;;;;;11.95;5.10;;;12.40;64.20;;;;;;6071023;23;20006;-73
2021/06/15 04:15:38;;;;;;;11.63;5.28;;;12.40;63.80;;;;;;6095015;23;20026;-70
2021/06/15 04:18:07;;;;;;;10.23;4.95;;;12.50;64.40;;;;;;6096433;23;20467;-73
2021/06/15 04:20:39;;;;;;;12.05;3.67;;;12.50;64.70;;;;;;6070948;23;20019;-70
2021/06/15 04:23:09;;;;;;;10.48;4.30;;;12.50;64.70;;;;;;6095106;23;20014;-73
2021/06/15 04:25:54;;;;;;;10.77;3.65;;;12.50;64.70;;;;;;6070795;23;20019;-70
2021/06/15 04:28:21;;;;;;;7.85;3.65;;;12.60;64.20;;;;;;6071008;23;20010;-73
2021/06/15 04:30:47;;;;;;;7.70;3.42;;;12.70;64.70;;;;;;6070504;23;20062;-73
2021/06/15 04:33:16;;;;;;;10.55;3.83;;;12.60;64.20;;;;;;6094695;23;20093;-70
2021/06/15 04:35:47;;;;;;;12.20;3.70;;;12.70;65.00;;;;;;6071103;23;20022;-70
2021/06/15 04:38:50;;;;;;;13.52;4.22;;;12.70;65.00;;;;;;6096349;23;20023;-70
2021/06/15 04:41:22;;;;;;;7.60;4.22;;;12.80;64.80;;;;;;6095805;23;20014;-73
2021/06/15 04:44:26;;;;;;;8.88;4.00;;;12.80;65.00;;;;;;6094537;23;20010;-70
2021/06/15 04:47:14;;;;;;;10.75;4.95;;;12.90;65.10;;;;;;6096281;23;20124;-70
2021/06/15 04:50:36;;;;;;;8.80;4.45;;;13.00;65.20;;;;;;6070944;23;20037;-70
2021/06/15 04:53:06;;;;;;;10.88;4.22;;;13.10;65.20;;;;;;6097166;23;20181;-73
2021/06/15 04:55:39;;;;;;;8.75;4.60;;;13.10;65.40;;;;;;6096606;23;20065;-69
2021/06/15 04:58:08;;;;;;;10.40;4.85;;;13.10;65.70;;;;;;6072627;23;20025;-73
2021/06/15 05:00:36;;;;;;;7.38;3.83;;;13.20;65.60;;;;;;6096540;23;20010;-73
2021/06/15 05:03:05;;;;;;;8.95;3.65;;;13.20;65.50;;;;;;6072630;23;20066;-73
2021/06/15 05:05:32;;;;;;;7.55;4.13;;;13.20;65.70;;;;;;6072637;23;20014;-74
2021/06/15 05:08:21;;;;;;;6.03;3.60;;;13.30;65.50;;;;;;6098026;23;20022;-70
2021/06/15 05:10:48;;;;;;;9.95;4.20;;;13.40;65.60;;;;;;6096624;23;20014;-73
2021/06/15 05:13:16;;;;;;;7.32;3.38;;;13.40;65.50;;;;;;6072363;23;20011;-70
2021/06/15 05:15:44;;;;;;;9.15;3.95;;;13.50;65.70;;;;;;6096501;23;20053;-73
2021/06/15 05:18:11;;;;;;;7.45;3.78;;;13.60;65.40;;;;;;6096333;23;20340;-73
2021/06/15 05:20:37;;;;;;;10.27;4.18;;;13.60;64.80;;;;;;6072357;23;20125;-70
2021/06/15 05:23:05;;;;;;;;;;;13.70;65.40;;;;;;6096980;23;20065;-73
2021/06/15 05:25:31;;;;;;;;;;;13.80;64.40;;;;;;6098640;23;19913;-70
2021/06/15 05:27:57;;;;;;;10.13;4.10;;;13.90;64.00;;;;;;6097794;23;20331;-72
2021/06/15 05:30:24;;;;;;;9.13;4.00;;;14.00;64.50;;;;;;6071843;23;20082;-73
2021/06/15 05:32:51;;;;;;;8.35;4.38;;;14.10;64.70;;;;;;6072464;23;20010;-73
2021/06/15 05:35:18;;;;;;;6.55;3.78;;;14.20;64.30;;;;;;6097927;23;20022;-73
2021/06/15 05:37:45;;;;;;;8.93;3.97;;;14.20;64.70;;;;;;6097474;23;20014;-73
2021/06/15 05:40:13;;;;;;;10.02;3.58;;;14.30;64.70;;;;;;6097907;23;20023;-70
2021/06/15 05:42:40;;;;;;;8.13;3.65;;;14.40;64.60;;;;;;6096135;23;20040;-70
2021/06/15 05:45:08;;;;;;;9.38;3.95;;;14.50;64.50;;;;;;6096094;23;20093;-73
2021/06/15 05:47:36;;;;;;;8.07;3.55;;;14.60;64.30;;;;;;6097496;23;20007;-73
2021/06/15 05:50:05;;;;;;;8.23;4.07;;;14.70;64.30;;;;;;6096085;23;20069;-70
2021/06/15 05:52:32;;;;;;;8.52;3.88;;;14.80;64.00;;;;;;6095959;23;20013;-70
2021/06/15 05:55:02;;;;;;;10.63;4.47;;;14.90;64.20;;;;;;6071918;23;20019;-73
2021/06/15 05:57:30;;;;;;;11.43;3.75;;;15.00;64.60;;;;;;6097317;23;20021;-70
2021/06/15 05:59:58;;;;;;;7.85;3.72;;;15.10;64.30;;;;;;6072300;23;20014;-70
2021/06/15 06:02:25;;;;;;;8.80;3.83;;;15.20;63.90;;;;;;6095918;23;20090;-73
2021/06/15 06:10:07;;;;;;;9.38;3.20;;;15.50;62.50;;;;;;6075762;23;20471;-72
2021/06/15 06:12:33;;;;;;;7.95;3.40;;;15.60;62.20;;;;;;6097286;23;20094;-72
2021/06/15 06:15:01;;;;;;;8.90;3.42;;;15.80;62.60;;;;;;6071867;23;20313;-72
2021/06/15 06:17:28;;;;;;;8.93;4.18;;;15.80;62.50;;;;;;6097052;23;20021;-73
2021/06/15 06:19:54;;;;;;;9.90;3.13;;;15.80;62.50;;;;;;6097349;23;20318;-71
2021/06/15 06:22:24;;;;;;;8.07;3.72;;;15.90;62.10;;;;;;6071770;23;20014;-70
2021/06/15 06:24:51;;;;;;;6.13;3.30;;;16.00;60.90;;;;;;6072399;23;20018;-70
2021/06/15 06:27:17;;;;;;;5.85;3.13;;;16.20;61.00;;;;;;6095691;23;20037;-70
2021/06/15 06:29:43;;;;;;;;;;;16.40;61.00;;;;;;6072129;23;20022;-73
2021/06/15 06:32:09;;;;;;;10.85;3.40;;;16.50;60.70;;;;;;6071862;23;19909;-73
2021/06/15 06:34:36;;;;;;;10.20;4.60;;;16.60;59.50;;;;;;6047570;23;20435;-70
2021/06/15 06:37:03;;;;;;;;;;;16.80;59.90;;;;;;6097630;23;20015;-71
2021/06/15 06:39:29;;;;;;;8.80;4.38;;;16.80;59.10;;;;;;6095344;23;19917;-70
2021/06/15 06:41:55;;;;;;;7.78;3.17;;;17.00;59.40;;;;;;6095594;23;20081;-73
2021/06/15 06:44:21;;;;;;;;;;;17.20;59.10;;;;;;6071930;23;20048;-70
2021/06/15 06:46:48;;;;;;;9.35;3.55;;;17.20;58.40;;;;;;6096954;23;19909;-70
2021/06/15 06:49:14;;;;;;;;;;;17.30;59.00;;;;;;6097417;23;20018;-70
2021/06/15 06:51:40;;;;;;;9.88;3.88;;;17.40;58.30;;;;;;6071426;23;19941;-73
2021/06/15 06:54:07;;;;;;;7.15;3.15;;;17.60;58.50;;;;;;6096803;23;20021;-70
2021/06/15 06:56:34;;;;;;;7.07;3.75;;;17.70;58.30;;;;;;6097169;23;20017;-70
2021/06/15 06:59:00;;;;;;;;;;;17.80;58.20;;;;;;6071838;23;20018;-72
2021/06/15 07:01:28;;;;;;;8.07;2.80;;;17.90;57.40;;;;;;6071439;23;19957;-73
2021/06/15 07:03:54;;;;;;;7.05;2.83;;;18.10;57.00;;;;;;6071670;23;20011;-73
2021/06/15 07:06:20;;;;;;;;;;;18.30;55.90;;;;;;6095978;23;20015;-70
2021/06/15 07:08:47;;;;;;;7.00;2.80;;;18.40;55.90;;;;;;6096798;23;19909;-70
2021/06/15 07:11:14;;;;;;;7.70;2.85;;;18.50;55.50;;;;;;6095548;23;20044;-70
2021/06/15 07:13:41;;;;;;;5.85;2.92;;;18.70;54.70;;;;;;6096726;23;20010;-69
2021/06/15 07:16:08;;;;;;;6.82;2.63;;;18.80;54.50;;;;;;6096977;23;20317;-73
2021/06/15 07:18:36;;;;;;;8.85;2.75;;;19.00;54.20;;;;;;6071148;23;20422;-72
2021/06/15 07:21:23;;;;;;;6.90;2.65;;;19.00;54.10;;;;;;6097180;23;20066;-70
2021/06/15 07:23:49;;;;;;;12.18;2.90;;;19.20;54.40;;;;;;6071326;23;20094;-70
2021/06/15 07:26:15;;;;;;;8.63;2.70;;;19.40;54.30;;;;;;6097216;23;20025;-70
2021/06/15 07:28:42;;;;;;;6.88;3.08;;;19.50;53.60;;;;;;6094953;23;20471;-72
2021/06/15 07:31:08;;;;;;;;;;;19.70;53.40;;;;;;6071551;23;20094;-70
2021/06/15 07:33:34;;;;;;;8.40;2.42;;;19.80;52.90;;;;;;6096591;23;19916;-73
2021/06/15 07:36:00;;;;;;;7.97;2.88;;;19.90;52.20;;;;;;6071308;23;20014;-72
2021/06/15 07:38:26;;;;;;;;;;;20.00;51.60;;;;;;6097150;23;20010;-71
2021/06/15 07:40:52;;;;;;;9.35;4.43;;;20.10;51.70;;;;;;6097092;23;19949;-74
2021/06/15 07:43:19;;;;;;;9.23;5.00;;;20.30;50.70;;;;;;6096586;23;20017;-70
2021/06/15 07:45:45;;;;;;;12.35;6.50;;;20.30;50.10;;;;;;6071278;23;20121;-71
2021/06/15 07:48:11;;;;;;;;;;;20.50;50.70;;;;;;6072260;23;20014;-72
2021/06/15 07:50:38;;;;;;;6.30;2.40;;;20.60;50.00;;;;;;6071017;23;19917;-71
2021/06/15 07:53:05;;;;;;;10.32;3.13;;;20.70;48.90;;;;;;6071196;23;20344;-71
2021/06/15 07:55:32;;;;;;;9.50;2.67;;;20.80;49.60;;;;;;6096731;23;20019;-73
2021/06/15 07:57:58;;;;;;;9.00;4.75;;;20.80;49.30;;;;;;6071216;23;20014;-71
2021/06/15 08:00:24;;;;;;;;;;;21.00;49.70;;;;;;6047896;23;20399;-73
2021/06/15 08:02:51;;;;;;;7.20;2.87;;;21.10;49.00;;;;;;6096710;23;20341;-72
2021/06/15 08:05:17;;;;;;;6.40;2.50;;;21.20;48.90;;;;;;6071038;23;20512;-70
2021/06/15 08:07:48;;;;;;;8.15;2.67;;;21.30;49.10;;;;;;6096449;23;20015;-71
2021/06/15 08:10:18;;;;;;;5.88;2.80;;;21.50;48.50;;;;;;6047918;23;20470;-71
2021/06/15 08:12:45;;;;;;;8.52;2.55;;;21.60;47.70;;;;;;6096357;23;20073;-74
2021/06/15 08:15:12;;;;;;;6.57;2.85;;;21.70;47.30;;;;;;6070929;23;20343;-73
2021/06/15 08:17:38;;;;;;;8.13;3.05;;;21.80;47.50;;;;;;6094900;23;20010;-70
2021/06/15 08:20:07;;;;;;;9.02;3.83;;;21.90;47.70;;;;;;6071073;23;20457;-73
2021/06/15 08:22:33;;;;;;;12.75;3.72;;;22.00;47.40;;;;;;6094964;23;20019;-70
2021/06/15 08:24:59;;;;;;;11.13;3.40;;;22.10;47.10;;;;;;6071093;23;20018;-73
2021/06/15 08:27:25;;;;;;;17.55;5.40;;;22.10;46.60;;;;;;6096896;23;20317;-73
2021/06/15 08:29:52;;;;;;;30.70;9.48;;;22.30;47.40;;;;;;6096477;23;20435;-74
2021/06/15 08:32:18;;;;;;;6.20;2.50;;;22.40;47.30;;;;;;6072964;23;20011;-70
2021/06/15 08:34:44;;;;;;;6.32;2.83;;;22.50;47.30;;;;;;6073025;23;20336;-70
2021/06/15 08:37:10;;;;;;;8.35;3.13;;;22.60;46.90;;;;;;6096662;23;20034;-73
2021/06/15 08:39:37;;;;;;;7.78;2.40;;;22.70;46.60;;;;;;6072535;23;20014;-71
2021/06/15 08:42:03;;;;;;;6.25;2.88;;;22.70;46.00;;;;;;6098266;23;20034;-74
2021/06/15 08:44:30;;;;;;;8.05;2.85;;;22.80;45.50;;;;;;6096611;23;20010;-72
2021/06/15 08:46:56;;;;;;;5.95;3.03;;;22.90;45.30;;;;;;6098288;23;20348;-70
2021/06/15 08:49:23;;;;;;;15.60;5.03;;;23.00;44.60;;;;;;6072499;23;20028;-73
2021/06/15 08:51:49;;;;;;;11.00;3.20;;;23.10;45.10;;;;;;6096627;23;20011;-70
2021/06/15 08:54:19;;;;;;;11.77;3.30;;;23.20;44.50;;;;;;6096591;23;20337;-73
2021/06/15 08:56:45;;;;;;;6.68;2.70;;;23.30;44.40;;;;;;6096525;23;20011;-73
2021/06/15 08:59:36;;;;;;;9.88;2.30;;;23.30;42.00;;;;;;6072583;23;20049;-70
2021/06/15 09:02:22;;;;;;;17.38;4.15;;;23.40;42.10;;;;;;6048665;23;20010;-72
2021/06/15 09:04:48;;;;;;;12.30;3.35;;;23.50;43.90;;;;;;6098150;23;20097;-70
2021/06/15 09:07:14;;;;;;;;;;;23.40;42.00;;;;;;6098695;23;20393;-70
2021/06/15 09:09:43;;;;;;;7.38;2.47;;;23.50;41.80;;;;;;6072433;23;19924;-73
2021/06/15 09:12:12;;;;;;;8.45;3.33;;;23.60;39.40;;;;;;6072572;23;20440;-73
2021/06/15 09:14:38;;;;;;;8.38;3.22;;;23.60;39.80;;;;;;6096331;23;20023;-73
2021/06/15 09:17:05;;;;;;;9.05;3.58;;;23.70;40.20;;;;;;6072165;23;20444;-71
2021/06/15 09:19:39;;;;;;;6.85;2.92;;;23.90;39.80;;;;;;6072042;23;20026;-74
2021/06/15 09:22:06;;;;;;;7.05;2.83;;;24.00;39.40;;;;;;6072253;23;20018;-70
2021/06/15 09:24:44;;;;;;;26.48;4.47;;;24.20;38.50;;;;;;6072173;23;20014;-73
2021/06/15 09:27:10;;;;;;;8.52;2.72;;;24.30;38.80;;;;;;6096489;23;20082;-70
2021/06/15 09:29:56;;;;;;;20.83;3.00;;;24.30;37.50;;;;;;6097384;23;20019;-71
2021/06/15 09:32:44;;;;;;;10.68;2.83;;;24.60;37.80;;;;;;6096330;23;20042;-73
2021/06/15 09:35:33;;;;;;;15.45;3.78;;;24.90;36.80;;;;;;6098075;23;20093;-73
2021/06/15 09:38:00;;;;;;;10.13;3.17;;;25.20;36.20;;;;;;6072086;23;20038;-71
2021/06/15 09:40:33;;;;;;;7.43;2.85;;;25.60;35.90;;;;;;6097347;23;20018;-71
2021/06/15 09:43:18;;;;;;;8.10;3.10;;;26.20;35.30;;;;;;6096173;23;20083;-74
2021/06/15 09:45:47;;;;;;;7.38;3.10;;;27.10;34.40;;;;;;6097740;23;20034;-70
2021/06/15 09:48:50;;;;;;;13.10;2.65;;;27.90;32.30;;;;;;6072043;23;20015;-70
2021/06/15 09:51:18;;;;;;;6.25;2.70;;;28.90;30.80;;;;;;6097539;23;20018;-74
2021/06/15 09:53:58;;;;;;;11.00;4.60;;;29.90;29.00;;;;;;6072007;23;20343;-73
2021/06/15 09:56:24;;;;;;;7.57;2.83;;;30.50;27.90;;;;;;6050069;23;20023;-73
2021/06/15 09:58:54;;;;;;;7.40;2.60;;;31.20;27.60;;;;;;6072032;23;20010;-72
2021/06/15 10:01:42;;;;;;;6.28;2.75;;;31.70;26.30;;;;;;6096070;23;20329;-70
2021/06/15 10:04:23;;;;;;;8.80;2.90;;;32.20;26.00;;;;;;6097357;23;20340;-71
2021/06/15 10:06:56;;;;;;;7.32;2.35;;;32.80;25.10;;;;;;6072256;23;20013;-74
2021/06/15 10:09:34;;;;;;;16.67;3.28;;;33.30;25.00;;;;;;6072042;23;20045;-75
2021/06/15 10:12:03;;;;;;;10.32;3.35;;;33.90;24.70;;;;;;6072024;23;20021;-71
2021/06/15 10:14:34;;;;;;;8.35;3.30;;;34.60;23.20;;;;;;6097202;23;20014;-71
2021/06/15 10:17:01;;;;;;;6.82;2.55;;;35.10;23.20;;;;;;6095809;23;20014;-71
2021/06/15 10:19:27;;;;;;;6.15;2.70;;;35.60;22.10;;;;;;6071421;23;20066;-71
2021/06/15 10:21:55;;;;;;;7.75;3.08;;;35.90;20.80;;;;;;6097165;23;20021;-71
2021/06/15 10:24:23;;;;;;;10.70;2.67;;;36.40;21.20;;;;;;6097134;23;20019;-74
2021/06/15 10:27:10;;;;;;;5.45;2.75;;;36.70;20.50;;;;;;6095775;23;20037;-73
2021/06/15 10:29:38;;;;;;;;;;;37.00;20.70;;;;;;6072085;23;20348;-71
2021/06/15 10:32:24;;;;;;;5.18;2.60;;;37.40;20.70;;;;;;6071867;23;19913;-71
2021/06/15 10:35:14;;;;;;;6.43;2.55;;;37.70;19.70;;;;;;6097509;23;20015;-72
2021/06/15 10:37:43;;;;;;;5.72;2.50;;;38.50;19.70;;;;;;6096881;23;20422;-72
2021/06/15 10:41:05;;;;;;;5.57;2.53;;;39.10;18.70;;;;;;6095648;23;20057;-71
2021/06/15 10:44:09;;;;;;;5.15;2.33;;;39.90;19.10;;;;;;6071355;23;20018;-75
2021/06/15 10:46:40;;;;;;;8.27;2.40;;;40.70;18.40;;;;;;6047570;23;20384;-74
2021/06/15 10:49:29;;;;;;;7.32;3.00;;;41.10;17.10;;;;;;6071292;23;20010;-72
2021/06/15 10:51:57;;;;;;;5.38;2.88;;;41.60;15.90;;;;;;6096874;23;20057;-72
2021/06/15 10:54:42;;;;;;;5.50;2.78;;;42.00;16.10;;;;;;6071569;23;20014;-72
2021/06/15 10:57:31;;;;;;;6.57;3.43;;;42.60;16.40;;;;;;6096807;23;20011;-74
2021/06/15 11:00:53;;;;;;;8.38;2.92;;;42.90;15.70;;;;;;6071213;23;20030;-72
2021/06/15 11:04:01;;;;;;;5.28;3.00;;;43.20;16.30;;;;;;6096845;23;20476;-75
2021/06/15 11:06:27;;;;;;;4.78;2.60;;;43.90;15.40;;;;;;6096710;23;20377;-76
2021/06/15 11:09:19;;;;;;;8.80;3.10;;;44.40;14.10;;;;;;6096780;23;20389;-75
2021/06/15 11:12:04;;;;;;;11.00;3.20;;;44.70;14.60;;;;;;6047448;23;20006;-75
2021/06/15 11:14:31;;;;;;;5.57;2.35;;;45.30;14.60;;;;;;6096733;23;20021;-76
2021/06/15 11:17:01;;;;;;;7.40;3.10;;;45.90;13.60;;;;;;6071799;23;20006;-73
2021/06/15 11:19:46;;;;;;;5.22;2.60;;;46.40;13.20;;;;;;6094983;23;20037;-72
2021/06/15 11:22:20;;;;;;;4.75;2.75;;;46.50;13.60;;;;;;6071380;23;20017;-72
2021/06/15 11:24:56;;;;;;;7.22;3.25;;;46.80;12.60;;;;;;6095128;23;20097;-72
2021/06/15 11:27:24;;;;;;;6.50;2.90;;;46.70;12.40;;;;;;6095305;23;20089;-73
2021/06/15 11:29:51;;;;;;;7.30;3.10;;;47.10;12.80;;;;;;6096164;23;20018;-72
2021/06/15 11:32:37;;;;;;;9.23;3.10;;;47.20;12.70;;;;;;6071470;23;20149;-72
2021/06/15 11:35:03;;;;;;;5.63;2.90;;;46.90;12.90;;;;;;6096752;23;20018;-73
2021/06/15 11:37:50;;;;;;;4.90;2.38;;;47.10;12.80;;;;;;6096416;23;20093;-75
2021/06/15 11:40:38;;;;;;;8.40;3.22;;;47.30;12.80;;;;;;6096937;23;20015;-75
2021/06/15 11:43:24;;;;;;;6.20;3.03;;;47.50;12.30;;;;;;6095197;23;20011;-72
2021/06/15 11:45:53;;;;;;;4.88;2.78;;;48.00;12.50;;;;;;6095216;23;20383;-76
2021/06/15 11:48:43;;;;;;;11.13;3.30;;;48.10;11.50;;;;;;6096644;23;20030;-74
2021/06/15 11:51:10;;;;;;;5.10;3.08;;;48.10;11.70;;;;;;6097173;23;20069;-75
2021/06/15 11:53:55;;;;;;;7.63;3.58;;;48.20;11.30;;;;;;6095056;23;20344;-75
2021/06/15 11:56:23;;;;;;;5.65;2.97;;;48.50;11.50;;;;;;6071118;23;20110;-75
2021/06/15 11:58:55;;;;;;;4.90;3.17;;;49.00;11.60;;;;;;6071447;23;20014;-72
2021/06/15 12:01:22;;;;;;;7.15;3.08;;;49.10;11.50;;;;;;6070958;23;20030;-75
2021/06/15 12:03:50;;;;;;;5.82;3.10;;;49.20;10.90;;;;;;6098248;23;20015;-72
2021/06/15 12:06:20;;;;;;;34.03;4.28;;;49.40;10.70;;;;;;6098433;23;20049;-75
2021/06/15 12:09:06;;;;;;;5.55;3.00;;;49.80;10.60;;;;;;6073129;23;20101;-75
2021/06/15 12:11:32;;;;;;;6.80;3.20;;;50.00;11.20;;;;;;6098533;23;20049;-72
2021/06/15 12:13:58;;;;;;;7.03;3.10;;;50.10;10.60;;;;;;6098420;23;20381;-75
2021/06/15 12:16:25;;;;;;;7.35;2.88;;;50.00;10.50;;;;;;6073103;23;20455;-74
2021/06/15 12:18:57;;;;;;;4.85;2.95;;;49.90;10.50;;;;;;6098292;23;20093;-72
2021/06/15 12:21:34;;;;;;;5.43;3.10;;;50.30;10.60;;;;;;6073037;23;20017;-72
2021/06/15 12:24:07;;;;;;;4.97;3.05;;;50.40;10.20;;;;;;6096991;23;20010;-75
2021/06/15 12:26:42;;;;;;;5.82;3.03;;;50.60;10.00;;;;;;6096916;23;20538;-75
2021/06/15 12:29:12;;;;;;;5.82;3.20;;;50.60;10.20;;;;;;6098376;23;20006;-72
2021/06/15 12:31:41;;;;;;;14.23;3.45;;;50.60;9.80;;;;;;6096704;23;20015;-72
2021/06/15 12:34:10;;;;;;;6.85;3.45;;;50.60;10.00;;;;;;6096762;23;20437;-72
2021/06/15 12:37:02;;;;;;;8.07;3.00;;;50.60;10.20;;;;;;6096761;23;20419;-72
2021/06/15 12:39:34;;;;;;;10.50;3.42;;;50.30;10.00;;;;;;6096823;23;20026;-74
2021/06/15 12:42:04;;;;;;;4.75;2.95;;;49.90;10.30;;;;;;6097758;23;20445;-72
2021/06/15 12:44:51;;;;;;;5.25;2.88;;;49.10;10.60;;;;;;6097650;23;20014;-71
2021/06/15 12:47:21;;;;;;;5.93;3.08;;;49.10;10.90;;;;;;6072651;23;20042;-75
2021/06/15 12:50:06;;;;;;;6.47;3.10;;;48.70;11.10;;;;;;6098204;23;20015;-74
2021/06/15 12:52:35;;;;;;;5.35;2.95;;;48.50;10.90;;;;;;6098120;23;20021;-75
2021/06/15 12:55:20;;;;;;;8.07;2.72;;;48.00;10.80;;;;;;6096533;23;20019;-74
2021/06/15 12:58:04;;;;;;;5.43;2.85;;;47.10;11.20;;;;;;6098041;23;20018;-74
2021/06/15 13:00:31;;;;;;;17.33;3.50;;;46.00;12.60;;;;;;6098369;23;20361;-72
2021/06/15 13:03:16;;;;;;;9.57;3.40;;;44.90;12.90;;;;;;6096623;23;20014;-72
2021/06/15 13:05:42;;;;;;;4.57;2.47;;;43.70;14.00;;;;;;6072409;23;20532;-75
2021/06/15 13:08:09;;;;;;;7.15;3.47;;;42.50;14.00;;;;;;6072638;23;20010;-71
2021/06/15 13:10:40;;;;;;;7.72;2.97;;;40.90;14.90;;;;;;6097645;23;20014;-73
2021/06/15 13:13:16;;;;;;;5.65;2.88;;;39.50;15.90;;;;;;6072425;23;20014;-73
2021/06/15 13:15:42;;;;;;;6.53;2.58;;;38.60;16.50;;;;;;6097874;23;20024;-72
2021/06/15 13:18:10;;;;;;;5.65;2.60;;;37.70;17.20;;;;;;6072109;23;20018;-74
2021/06/15 13:20:37;;;;;;;7.10;2.67;;;37.10;18.10;;;;;;6072632;23;20384;-71
2021/06/15 13:23:18;;;;;;;8.38;2.83;;;36.80;18.20;;;;;;6096368;23;20010;-72
2021/06/15 13:25:44;;;;;;;5.65;2.58;;;36.20;19.10;;;;;;6048501;23;20025;-71
2021/06/15 13:30:55;;;;;;;5.07;2.65;;;35.70;19.40;;;;;;6075908;23;20032;-72
2021/06/15 13:33:40;;;;;;;7.97;2.80;;;35.50;20.10;;;;;;6097797;23;20384;-72